Regional La Paz
EstaciónAerodromoSit. GeograficaDescripción
SLLPInternaciónal El Alto16-08S-68-10W SLLP 291100Z 36004KT 9999 NSC 01/M09 Q1039 A3069 628.7 CI HR45 NOSIG=
SLRYReyes14-18S-67-21W RTD SLRY 121500Z 00000KT 9999 BKN012 BKN200 27/25 Q1011 A2988 HR88 RWY WET OPR C210=
SLRQRurrenabaque14-25S-67-29W SLRQ 131700Z 36004KT 9999 BKN015 BKN200 28/26 Q1010 A2984 986.5 HR88 AC=
SLAPApolo14-44S-68-24W SLAP 211700Z 00000KT 9999 SCT017 OVC070 20/19 Q1018 A3008 859.1 HR91=
SLSBSan Borja14-51S-66-44W SLSB 282100Z 32003KT 9999 FEW020 28/19 Q1012 A2991 HR58 RWY NML=
SLCNCharaña17-35S-69-25W SLCN 112000Z
SLOROruro17-57S-67-04W SLOR 281600Z 23007KT 9999 NSC 14/M05 Q1037 A3064 657.7 HR25=
SLUYUyuni20-27S-62-52W SLUY 281600Z 32006KT 9999 NSC 08/M03 Q1036 A3061 660.1 HR44 CI=
SLCCCopacabana - Tito Yupanqui16-11S-69-05W SLCC 211200Z NIL=
Regional Cochabamba
EstaciónAerodromoSit. GeograficaDescripción
SLVMVillamontes21-15S-63-24W SLVM 271700Z 00000KT 9999 NSC 31/12 Q1013 A2992 HR32 FU=
SLHIChimore16-58S-65-09W SLHI 202000Z NIL=
SLCBCochabamba17-25S-66-10W SLCB 291100Z 00000KT 9999 NSC 03/M03 Q1026 A3031 752.5 HR69 FU CI NOSIG=
SLALAlcantari19-14S-65-09W SLAL 251500Z 07005KT 9999 NSC 15/M03 Q1036 A3061 709.0 HR30=
SLPOPotosí19-32S-65-43W SLPO 311400Z 06004KT 9999 SCT017 FEW023TCU BKN070 12/06 Q1042 A3079 641.3 HR67 TCU/NE=
SLAGMonteagudo19-49S-63-58W SLAG 151700Z 11003KT 9999 NSC 24/11 Q1022 A3020 894.3 HR44 CI=
SLTJTarija21-33S-64-42W SLTJ 281600Z 00000KT 9999 NSC 23/05 Q1017 A3004 812.7 HR31 CI=
SLYAYacuiba21-57S-63-39W SLYA 201800Z 21006KT 9999 NSC 33/21 Q1006 A2973 932.0 HR49=
SLBJBermejo22-46S-64-18W SLBJ 202000Z NIL=
Regional Santa Cruz
EstaciónAerodromoSit. GeograficaDescripción
SLVGValle Grande18-28S-64-05W SLVG 211700Z 00000KT 9999 BKN027 21/14 Q1023 A3021 HR64 RWY NML=
SLASAscención de Guarayos15-55S-63-09W SLAS 261300Z 00000KT 9999 NSC 20/15 Q1022 A3018 HR74 RWY NML=
SLCPConcepción16-08S-62-01W RTD SLCP 251300Z 18004KT 9999 NSC 25/23 Q1021 A3015 HR88 RWY NML=
SLJVSan Javier16-16S-62-28W SLJV 161700Z 00000KT 9999 NSC 26/19 Q1018 A3006 HR60 RWY NML=
SLTISan Matías16-20S-58-24W SLTI 081300Z 00000KT 9999 NSC 18/14 Q1026 A3030 HR74 RWY NML=
SLSISan Ignacio de Velasco16-23S-60-57W SLSI 302000Z 36006KT 9999 SCT017 33/23 Q1013 A2991 HR54 RWY NML=
SLVRInternaciónal Viru Viru17-38S-63-08W SLVR 291100Z 34006KT 9999 FEW070 SCT200 16/15 Q1014 A2996 HR90 NOSIG=
SLETEl Trompillo17-48S-63-10W SLET 291100Z 33010KT 9999 FEW017 BKN200 17/15 Q1014 A2994 HR91 NOSIG=
SLJESan José de Chiquitos17-49S-60-44W SLJE 211700Z 00000KT 9999 BKN015 30/23 Q1013 A2991 HR69 RWY HUM OPR=
SLRBRoboré18-19S-59-45W SLRB 221400Z 36010KT 9999 FEW020 SCT070 29/24 Q1017 A3003 HR76 RWY NML=
SLPSPuerto Suárez18-58S-57-49W SLPS 231600Z 18010KT 9999 OVC070 16/14 Q1018 A3007 HR88=
SLCACamiri20-00S-63-31W SLCA 241000Z 00000KT 9999 NSC 16/15 Q1012 A2988 HR93 RWY NML=
Regional Beni
EstaciónAerodromoSit. GeograficaDescripción
SLTRTrinidad14-49S-64-54W SLTR 291100Z 00000KT 1500 VCFG NSC 15/15 Q1014 A2996 996.0 HR99 CI VCFG W/NW BECMG 9999=
SLCOCobija11-02S-68-47W SLCO 281600Z 21003KT 9999 FEW025 29/21 Q1015 A2998 987.7 HR61=
SLGMGuayaramerín10-53S-65-23W SLGM 241200Z 18015KT 9999 BKN080 17/13 Q1019 A3009 HR81=
SLRIRiberalta11-00S-66-04W SLRI 281700Z 34006KT 9999 NSC 30/18 Q1015 A2998 HR50 CI=
SLJOSan Joaquin13-03S-64-39W SLJO 201700Z NIL=
SLRASan Ramón13-15S-64-36W SLRA 201700Z NIL=
SLMGSan Magdalena13-15S-64-36W SLMG 211500Z 02008KT 9999 SCT017 32/24 Q1015 A2998 HR65=
SLBUBaures13-39S-63-42W SLBU 201700Z NIL=
SLSASanta Ana de Yacuma13-45S-65-26W SLSA 282000Z 00000KT 9999 NSC 20/17 Q1012 A2989 HR50=
SLSRSanta Rosa14-04S-66-47W SLSR 201700Z NIL=
SLSMSan Ignacio de Moxos14-57S-65-38W SLSM 201700Z NIL=